DL6DJ-15 Weather Reports


time (UTC)temp
F
wind
direction
speed
knots
gust
knots
rain 1hr
in
rain 24hr
in
rain mn
in
humidity
%
barometer
mb
20260506103258 71 0.0 0.0 0.00 0.00 0.00 41 1007.9
20260506102757 71 0.0 0.0 0.00 0.00 0.00 42 1007.9
20260506102257 72 0.0 0.0 0.00 0.00 0.00 40 1007.9
20260506101757 72 0.0 0.0 0.00 0.00 0.00 42 1007.9
20260506101256 71 0.0 0.0 0.00 0.00 0.00 42 1008.0
20260506100756 71 0.0 0.0 0.00 0.00 0.00 42 1008.0
20260506100256 72 0.0 0.0 0.00 0.00 0.00 43 1008.0
20260506095755 71 0.0 0.0 0.00 0.00 0.00 44 1007.9
20260506095255 71 0.0 0.0 0.00 0.00 0.00 44 1007.9
20260506094755 71 0.0 0.0 0.00 0.00 0.00 43 1007.9
20260506094254 71 0.0 0.0 0.00 0.00 0.00 42 1008.0
20260506093755 71 0.0 0.0 0.00 0.00 0.00 45 1007.9
20260506093254 70 0.0 0.0 0.00 0.00 0.00 45 1008.0
20260506092753 71 0.0 0.0 0.00 0.00 0.00 45 1008.1
20260506092253 71 0.0 0.0 0.00 0.00 0.00 44 1008.0
20260506091753 71 0.0 0.0 0.00 0.00 0.00 40 1008.1
20260506091252 73 0.0 0.0 0.00 0.00 0.00 39 1008.0
20260506090752 74 0.0 0.0 0.00 0.00 0.00 37 1008.1
20260506090251 75 0.0 0.0 0.00 0.00 0.00 38 1008.1
20260506085751 78 0.0 0.0 0.00 0.00 0.00 33 1008.1
20260506085251 79 0.0 0.0 0.00 0.00 0.00 34 1008.1
20260506084750 76 0.0 0.0 0.00 0.00 0.00 36 1008.1
20260506084250 76 0.0 0.0 0.00 0.00 0.00 35 1008.1
20260506083750 77 0.0 0.0 0.00 0.00 0.00 36 1008.0
20260506083249 75 0.0 0.0 0.00 0.00 0.00 37 1008.0
20260506082749 76 0.0 0.0 0.00 0.00 0.00 36 1008.1
20260506082249 75 0.0 0.0 0.00 0.00 0.00 39 1008.2
20260506081748 73 0.0 0.0 0.00 0.00 0.00 42 1008.2
20260506081248 72 0.0 0.0 0.00 0.00 0.00 41 1008.2
20260506080747 73 0.0 0.0 0.00 0.00 0.00 41 1008.2
20260506080247 74 0.0 0.0 0.00 0.00 0.00 41 1008.2
20260506073245 74 0.0 0.0 0.00 0.00 0.00 38 1008.4
20260506072744 79 0.0 0.0 0.00 0.00 0.00 34 1008.3
20260506072244 81 0.0 0.0 0.00 0.00 0.00 32 1008.4
20260506071743 80 0.0 0.0 0.00 0.00 0.00 33 1008.3
20260506071243 79 0.0 0.0 0.00 0.00 0.00 36 1008.2
20260506070743 79 0.0 0.0 0.00 0.00 0.00 35 1008.2
20260506070243 79 0.0 0.0 0.00 0.00 0.00 33 1008.2
20260506062239 74 0.0 0.0 0.00 0.00 0.00 43 1008.2
20260506061739 72 0.0 0.0 0.00 0.00 0.00 45 1008.2
20260506061238 68 0.0 0.0 0.00 0.00 0.00 51 1008.2
20260506060738 65 0.0 0.0 0.00 0.00 0.00 56 1008.1
20260506060238 63 0.0 0.0 0.00 0.00 0.00 57 1008.3
20260506051234 59 0.0 0.0 0.00 0.00 0.00 65 1008.4
20260506050734 58 0.0 0.0 0.00 0.00 0.00 69 1008.4
20260506050233 53 0.0 0.0 0.00 0.00 0.00 78 1008.3
20260506044732 50 0.0 0.0 0.00 0.00 0.00 80 1008.2
20260506044231 49 0.0 0.0 0.00 0.00 0.00 81 1008.4
20260506043731 49 0.0 0.0 0.00 0.00 0.00 80 1008.5
20260506043231 49 0.0 0.0 0.00 0.00 0.00 80 1008.6
20260506042730 48 0.0 0.0 0.00 0.00 0.00 80 1008.7
20260506042230 48 0.0 0.0 0.00 0.00 0.00 80 1008.7
20260506041730 48 0.0 0.0 0.00 0.00 0.00 80 1008.8
20260506041229 48 0.0 0.0 0.00 0.00 0.00 79 1008.7
20260506040728 48 0.0 0.0 0.00 0.00 0.00 80 1008.7
20260506040228 48 0.0 0.0 0.00 0.00 0.00 79 1008.7
20260506035728 48 0.0 0.0 0.00 0.00 0.00 80 1008.6
20260506035228 47 0.0 0.0 0.00 0.00 0.00 79 1008.7
20260506034727 48 0.0 0.0 0.00 0.00 0.00 79 1008.6
20260506034226 48 0.0 0.0 0.00 0.00 0.00 78 1008.6
20260506033726 48 0.0 0.0 0.00 0.00 0.00 79 1008.5
20260506033225 48 0.0 0.0 0.00 0.00 0.00 79 1008.5
20260506032725 48 0.0 0.0 0.00 0.00 0.00 79 1008.4
20260506032225 48 0.0 0.0 0.00 0.00 0.00 80 1008.3
20260506031725 48 0.0 0.0 0.00 0.00 0.00 78 1008.4
20260506031224 48 0.0 0.0 0.00 0.00 0.00 78 1008.4
20260506030724 48 0.0 0.0 0.00 0.00 0.00 77 1008.5
20260506030224 48 0.0 0.0 0.00 0.00 0.00 78 1008.6
20260506025723 48 0.0 0.0 0.00 0.00 0.00 79 1008.7
20260506025223 49 0.0 0.0 0.00 0.00 0.00 78 1008.4
20260506024722 49 0.0 0.0 0.00 0.00 0.00 78 1008.4
20260506024222 49 0.0 0.0 0.00 0.00 0.00 78 1008.5
20260506023722 50 0.0 0.0 0.00 0.00 0.00 76 1008.5
20260506023221 50 0.0 0.0 0.00 0.00 0.00 77 1008.5
20260506022721 50 0.0 0.0 0.00 0.00 0.00 77 1008.5
20260506022220 50 0.0 0.0 0.00 0.00 0.00 77 1008.6
20260506021720 50 0.0 0.0 0.00 0.00 0.00 78 1008.7
20260506021220 50 0.0 0.0 0.00 0.00 0.00 77 1008.8
20260506020719 50 0.0 0.0 0.00 0.00 0.00 77 1008.9
20260506020219 50 0.0 0.0 0.00 0.00 0.00 77 1008.8
20260506015719 50 0.0 0.0 0.00 0.00 0.00 77 1008.8
20260506015218 50 0.0 0.0 0.00 0.00 0.00 77 1008.7
20260506014718 51 0.0 0.0 0.00 0.00 0.00 77 1008.8
20260506014218 51 0.0 0.0 0.00 0.00 0.00 77 1008.8
20260506013717 51 0.0 0.0 0.00 0.00 0.00 77 1008.7
20260506013217 51 0.0 0.0 0.00 0.00 0.00 77 1008.7
20260506012717 52 0.0 0.0 0.00 0.00 0.00 77 1008.7
20260506012216 52 0.0 0.0 0.00 0.00 0.00 76 1008.8
20260506011716 53 0.0 0.0 0.00 0.00 0.00 76 1008.8
20260506011216 54 0.0 0.0 0.00 0.00 0.00 76 1008.8
20260506010715 55 0.0 0.0 0.00 0.00 0.00 76 1008.8
20260506010215 55 0.0 0.0 0.00 0.00 0.00 77 1008.8
20260506005714 55 0.0 0.0 0.00 0.00 0.00 78 1008.8
20260506005214 55 0.0 0.0 0.00 0.00 0.00 78 1008.8
20260506004714 55 0.0 0.0 0.00 0.00 0.00 78 1008.8
20260506004213 55 0.0 0.0 0.00 0.00 0.00 78 1008.7
20260506003713 55 0.0 0.0 0.00 0.00 0.00 78 1008.7
20260506003213 55 0.0 0.0 0.00 0.00 0.00 78 1008.9
20260506002712 55 0.0 0.0 0.00 0.00 0.00 78 1008.9
20260506002212 55 0.0 0.0 0.00 0.00 0.00 78 1009.0
20260506001712 55 0.0 0.0 0.00 0.00 0.00 78 1009.1
20260506001211 55 0.0 0.0 0.00 0.00 0.00 78 1009.1
20260506000711 55 0.0 0.0 0.00 0.00 0.00 79 1009.2
20260506000212 55 0.0 0.0 0.00 0.00 0.00 79 1009.3
20260505235710 55 0.0 0.0 0.00 0.00 0.00 79 1009.2
20260505235210 55 0.0 0.0 0.00 0.00 0.00 79 1009.2
20260505234709 54 0.0 0.0 0.00 0.00 0.00 78 1009.4
20260505234209 54 0.0 0.0 0.00 0.00 0.00 79 1009.3
20260505233708 54 0.0 0.0 0.00 0.00 0.00 79 1009.4
20260505233208 54 0.0 0.0 0.00 0.00 0.00 78 1009.4
20260505232707 54 0.0 0.0 0.00 0.00 0.00 78 1009.3
20260505232207 54 0.0 0.0 0.00 0.00 0.00 77 1009.4
20260505231705 54 0.0 0.0 0.00 0.00 0.00 78 1009.3
20260505231205 54 0.0 0.0 0.00 0.00 0.00 77 1009.3
20260505230705 54 0.0 0.0 0.00 0.00 0.00 77 1009.3
20260505230205 55 0.0 0.0 0.00 0.00 0.00 77 1009.2
20260505225705 55 0.0 0.0 0.00 0.00 0.00 78 1009.2
20260505225204 55 0.0 0.0 0.00 0.00 0.00 78 1009.2
20260505224704 55 0.0 0.0 0.00 0.00 0.00 78 1009.2
20260505224203 55 0.0 0.0 0.00 0.00 0.00 78 1009.2
20260505223703 55 0.0 0.0 0.00 0.00 0.00 79 1009.2
20260505223202 55 0.0 0.0 0.00 0.00 0.00 79 1009.3
20260505222702 55 0.0 0.0 0.00 0.00 0.00 79 1009.2
20260505222202 55 0.0 0.0 0.00 0.00 0.00 78 1009.2
20260505221701 55 0.0 0.0 0.00 0.00 0.00 77 1009.2
20260505221201 55 0.0 0.0 0.00 0.00 0.00 77 1009.2
20260505220700 55 0.0 0.0 0.00 0.00 0.00 77 1009.3
20260505220200 56 0.0 0.0 0.00 0.00 0.00 76 1009.3
20260505215700 56 0.0 0.0 0.00 0.00 0.00 76 1009.2
20260505215159 56 0.0 0.0 0.00 0.00 0.00 76 1009.2
20260505214659 56 0.0 0.0 0.00 0.00 0.00 76 1009.1
20260505214158 56 0.0 0.0 0.00 0.00 0.00 77 1009.3
20260505213658 56 0.0 0.0 0.00 0.00 0.00 78 1009.2
20260505213158 56 0.0 0.0 0.00 0.00 0.00 78 1009.2
20260505212657 56 0.0 0.0 0.00 0.00 0.00 77 1009.2
20260505212157 56 0.0 0.0 0.00 0.00 0.00 78 1009.2
20260505211656 55 0.0 0.0 0.00 0.00 0.00 78 1009.2
20260505211156 55 0.0 0.0 0.00 0.00 0.00 78 1009.2
20260505210656 55 0.0 0.0 0.00 0.00 0.00 79 1009.0
20260505210156 55 0.0 0.0 0.00 0.00 0.00 79 1008.9
20260505205655 55 0.0 0.0 0.00 0.00 0.00 79 1008.8
20260505205155 55 0.0 0.0 0.00 0.00 0.00 79 1008.8
20260505204654 55 0.0 0.0 0.00 0.00 0.00 78 1008.6
20260505204154 56 0.0 0.0 0.00 0.00 0.00 78 1008.6
20260505203654 56 0.0 0.0 0.00 0.00 0.00 78 1008.6
20260505203153 56 0.0 0.0 0.00 0.00 0.00 79 1008.6
20260505202653 56 0.0 0.0 0.00 0.00 0.00 78 1008.6
20260505202152 56 0.0 0.0 0.00 0.00 0.00 79 1008.5
20260505201652 56 0.0 0.0 0.00 0.00 0.00 79 1008.4
20260505201152 56 0.0 0.0 0.00 0.00 0.00 80 1008.4
20260505200651 56 0.0 0.0 0.00 0.00 0.00 79 1008.4
20260505200151 56 0.0 0.0 0.00 0.00 0.00 79 1008.3
20260505195651 56 0.0 0.0 0.00 0.00 0.00 79 1008.1
20260505195150 57 0.0 0.0 0.00 0.00 0.00 79 1008.0
20260505194650 57 0.0 0.0 0.00 0.00 0.00 79 1008.0
20260505194150 57 0.0 0.0 0.00 0.00 0.00 79 1008.0
20260505193649 57 0.0 0.0 0.00 0.00 0.00 79 1007.9
20260505193148 57 0.0 0.0 0.00 0.00 0.00 79 1007.8
20260505192648 57 0.0 0.0 0.00 0.00 0.00 79 1007.8
20260505192148 57 0.0 0.0 0.00 0.00 0.00 79 1007.7
20260505191649 57 0.0 0.0 0.00 0.00 0.00 78 1007.6
20260505191147 57 0.0 0.0 0.00 0.00 0.00 77 1007.6
20260505190647 57 0.0 0.0 0.00 0.00 0.00 76 1007.5
20260505190146 58 0.0 0.0 0.00 0.00 0.00 76 1007.4
20260505185646 58 0.0 0.0 0.00 0.00 0.00 76 1007.4
20260505185146 58 0.0 0.0 0.00 0.00 0.00 75 1007.3
20260505184645 58 0.0 0.0 0.00 0.00 0.00 76 1007.3
20260505184145 58 0.0 0.0 0.00 0.00 0.00 75 1007.2
20260505183645 58 0.0 0.0 0.00 0.00 0.00 74 1007.1
20260505183145 58 0.0 0.0 0.00 0.00 0.00 74 1007.2
20260505182645 58 0.0 0.0 0.00 0.00 0.00 74 1007.0
20260505182144 59 0.0 0.0 0.00 0.00 0.00 73 1007.1
20260505181643 58 0.0 0.0 0.00 0.00 0.00 74 1007.0
20260505181143 58 0.0 0.0 0.00 0.00 0.00 74 1007.1
20260505180642 58 0.0 0.0 0.00 0.00 0.00 74 1006.9
20260505180143 59 0.0 0.0 0.00 0.00 0.00 73 1006.9
20260505175642 59 0.0 0.0 0.00 0.00 0.00 72 1006.9
20260505175141 60 0.0 0.0 0.00 0.00 0.00 71 1006.9
20260505174641 61 0.0 0.0 0.00 0.00 0.00 70 1006.9
20260505174141 61 0.0 0.0 0.00 0.00 0.00 69 1006.8
20260505173641 61 0.0 0.0 0.00 0.00 0.00 69 1006.9
20260505173140 61 0.0 0.0 0.00 0.00 0.00 69 1006.9
20260505172640 61 0.0 0.0 0.00 0.00 0.00 70 1007.0
20260505172139 61 0.0 0.0 0.00 0.00 0.00 70 1007.2
20260505171639 61 0.0 0.0 0.00 0.00 0.00 71 1007.3
20260505171139 60 0.0 0.0 0.00 0.00 0.00 70 1007.3
20260505170639 61 0.0 0.0 0.00 0.00 0.00 69 1007.1
20260505170138 60 0.0 0.0 0.00 0.00 0.00 71 1006.7
20260505165638 60 0.0 0.0 0.00 0.00 0.00 73 1006.8
20260505165138 60 0.0 0.0 0.00 0.00 0.00 71 1006.7
20260505164637 60 0.0 0.0 0.00 0.00 0.00 71 1006.8
20260505164137 60 0.0 0.0 0.00 0.00 0.00 71 1006.9
20260505163636 60 0.0 0.0 0.00 0.00 0.00 70 1006.8
20260505163136 60 0.0 0.0 0.00 0.00 0.00 68 1006.9
20260505162636 61 0.0 0.0 0.00 0.00 0.00 68 1007.0
20260505162135 61 0.0 0.0 0.00 0.00 0.00 67 1006.9
20260505161635 61 0.0 0.0 0.00 0.00 0.00 67 1007.1
20260505161135 61 0.0 0.0 0.00 0.00 0.00 65 1007.0
20260505160634 62 0.0 0.0 0.00 0.00 0.00 66 1006.9
20260505160134 62 0.0 0.0 0.00 0.00 0.00 68 1006.9
20260505153132 65 0.0 0.0 0.00 0.00 0.00 55 1006.5
20260505152632 70 0.0 0.0 0.00 0.00 0.00 53 1006.3
20260505152131 73 0.0 0.0 0.00 0.00 0.00 51 1006.1
20260505151631 74 0.0 0.0 0.00 0.00 0.00 39 1006.0
20260505151130 75 0.0 0.0 0.00 0.00 0.00 35 1005.8
20260505150630 75 0.0 0.0 0.00 0.00 0.00 34 1005.7
20260505150130 75 0.0 0.0 0.00 0.00 0.00 32 1005.6
20260505140625 80 0.0 0.0 0.00 0.00 0.00 27 1005.9
20260505140125 79 0.0 0.0 0.00 0.00 0.00 25 1005.9
20260505130120 83 0.0 0.0 0.00 0.00 0.00 24 1006.5
20260505124618 84 0.0 0.0 0.00 0.00 0.00 25 1006.6
20260505124118 83 0.0 0.0 0.00 0.00 0.00 24 1006.7
20260505123618 82 0.0 0.0 0.00 0.00 0.00 24 1006.7
20260505123117 82 0.0 0.0 0.00 0.00 0.00 25 1006.8
20260505122617 82 0.0 0.0 0.00 0.00 0.00 25 1006.8
20260505122116 82 0.0 0.0 0.00 0.00 0.00 25 1006.8
20260505121616 81 0.0 0.0 0.00 0.00 0.00 24 1006.9
20260505121116 82 0.0 0.0 0.00 0.00 0.00 24 1007.0
20260505120616 82 0.0 0.0 0.00 0.00 0.00 22 1007.0
20260505120115 82 0.0 0.0 0.00 0.00 0.00 23 1007.1
20260505115615 82 0.0 0.0 0.00 0.00 0.00 23 1007.1
20260505115114 85 0.0 0.0 0.00 0.00 0.00 22 1007.2
20260505114614 86 0.0 0.0 0.00 0.00 0.00 21 1007.3
20260505114113 85 0.0 0.0 0.00 0.00 0.00 20 1007.3
20260505113613 87 0.0 0.0 0.00 0.00 0.00 21 1007.2
20260505113113 84 0.0 0.0 0.00 0.00 0.00 23 1007.4
20260505112612 84 0.0 0.0 0.00 0.00 0.00 22 1007.5
20260505112112 84 0.0 0.0 0.00 0.00 0.00 22 1007.6
20260505111611 83 0.0 0.0 0.00 0.00 0.00 23 1007.5
20260505111111 85 0.0 0.0 0.00 0.00 0.00 21 1007.4
20260505110610 85 0.0 0.0 0.00 0.00 0.00 21 1007.7
20260505110110 83 0.0 0.0 0.00 0.00 0.00 23 1007.6